sensor_id;sensor_type;location;lat;lon;timestamp;temperature;humidity
15959;DHT22;8078;47.822;9.402;2022-10-14T00:00:20;10.50;99.90
15959;DHT22;8078;47.822;9.402;2022-10-14T00:02:46;10.50;99.90
15959;DHT22;8078;47.822;9.402;2022-10-14T00:05:11;10.50;99.90
15959;DHT22;8078;47.822;9.402;2022-10-14T00:07:37;10.50;99.90
15959;DHT22;8078;47.822;9.402;2022-10-14T00:10:04;10.50;99.90
15959;DHT22;8078;47.822;9.402;2022-10-14T00:12:30;10.50;99.90
15959;DHT22;8078;47.822;9.402;2022-10-14T00:14:56;10.50;99.90
15959;DHT22;8078;47.822;9.402;2022-10-14T00:17:22;10.50;99.90
15959;DHT22;8078;47.822;9.402;2022-10-14T00:19:47;10.50;99.90
15959;DHT22;8078;47.822;9.402;2022-10-14T00:22:13;10.50;99.90
15959;DHT22;8078;47.822;9.402;2022-10-14T00:24:39;10.50;99.90
15959;DHT22;8078;47.822;9.402;2022-10-14T00:27:04;10.50;99.90
15959;DHT22;8078;47.822;9.402;2022-10-14T00:29:30;10.50;99.90
15959;DHT22;8078;47.822;9.402;2022-10-14T00:31:55;10.50;99.90
15959;DHT22;8078;47.822;9.402;2022-10-14T00:34:21;10.50;99.90
15959;DHT22;8078;47.822;9.402;2022-10-14T00:36:47;10.50;99.90
15959;DHT22;8078;47.822;9.402;2022-10-14T00:39:12;10.50;99.90
15959;DHT22;8078;47.822;9.402;2022-10-14T00:41:38;10.50;99.90
15959;DHT22;8078;47.822;9.402;2022-10-14T00:46:46;10.50;99.90
15959;DHT22;8078;47.822;9.402;2022-10-14T00:49:19;10.50;99.90
15959;DHT22;8078;47.822;9.402;2022-10-14T00:51:50;10.40;99.90
15959;DHT22;8078;47.822;9.402;2022-10-14T00:54:18;10.40;99.90
15959;DHT22;8078;47.822;9.402;2022-10-14T00:56:47;10.40;99.90
15959;DHT22;8078;47.822;9.402;2022-10-14T00:59:14;10.50;99.90
15959;DHT22;8078;47.822;9.402;2022-10-14T01:01:40;10.50;99.90
15959;DHT22;8078;47.822;9.402;2022-10-14T01:04:05;10.50;99.90
15959;DHT22;8078;47.822;9.402;2022-10-14T01:09:39;10.50;99.90
15959;DHT22;8078;47.822;9.402;2022-10-14T01:15:02;10.50;99.90
15959;DHT22;8078;47.822;9.402;2022-10-14T01:18:03;10.50;99.90
15959;DHT22;8078;47.822;9.402;2022-10-14T01:20:54;10.50;99.90
15959;DHT22;8078;47.822;9.402;2022-10-14T01:26:43;10.50;99.90
15959;DHT22;8078;47.822;9.402;2022-10-14T01:32:03;10.60;99.90
15959;DHT22;8078;47.822;9.402;2022-10-14T01:34:35;10.60;99.90
15959;DHT22;8078;47.822;9.402;2022-10-14T01:37:09;10.60;99.90
15959;DHT22;8078;47.822;9.402;2022-10-14T01:39:43;10.60;99.90
15959;DHT22;8078;47.822;9.402;2022-10-14T01:42:17;10.60;99.90
15959;DHT22;8078;47.822;9.402;2022-10-14T01:44:49;10.60;99.90
15959;DHT22;8078;47.822;9.402;2022-10-14T01:47:19;10.60;99.90
15959;DHT22;8078;47.822;9.402;2022-10-14T01:49:56;10.60;99.90
15959;DHT22;8078;47.822;9.402;2022-10-14T01:52:26;10.60;99.90
15959;DHT22;8078;47.822;9.402;2022-10-14T01:54:57;10.60;99.90
15959;DHT22;8078;47.822;9.402;2022-10-14T01:57:27;10.60;99.90
15959;DHT22;8078;47.822;9.402;2022-10-14T01:59:55;10.70;99.90
15959;DHT22;8078;47.822;9.402;2022-10-14T02:02:22;10.70;99.90
15959;DHT22;8078;47.822;9.402;2022-10-14T02:04:49;10.70;99.90
15959;DHT22;8078;47.822;9.402;2022-10-14T02:07:28;10.70;99.90
15959;DHT22;8078;47.822;9.402;2022-10-14T02:10:12;10.70;99.90
15959;DHT22;8078;47.822;9.402;2022-10-14T02:18:06;10.60;99.90
15959;DHT22;8078;47.822;9.402;2022-10-14T02:20:37;10.60;99.90
15959;DHT22;8078;47.822;9.402;2022-10-14T02:23:51;10.60;99.90
15959;DHT22;8078;47.822;9.402;2022-10-14T02:25:57;10.60;99.90
15959;DHT22;8078;47.822;9.402;2022-10-14T02:28:26;10.60;99.90
15959;DHT22;8078;47.822;9.402;2022-10-14T02:30:56;10.60;99.90
15959;DHT22;8078;47.822;9.402;2022-10-14T02:33:27;10.60;99.90
15959;DHT22;8078;47.822;9.402;2022-10-14T02:35:53;10.60;99.90
15959;DHT22;8078;47.822;9.402;2022-10-14T02:38:20;10.60;99.90
15959;DHT22;8078;47.822;9.402;2022-10-14T02:40:49;10.60;99.90
15959;DHT22;8078;47.822;9.402;2022-10-14T02:43:15;10.60;99.90
15959;DHT22;8078;47.822;9.402;2022-10-14T02:45:42;10.70;99.90
15959;DHT22;8078;47.822;9.402;2022-10-14T02:48:08;10.60;99.90
15959;DHT22;8078;47.822;9.402;2022-10-14T02:50:34;10.60;99.90
15959;DHT22;8078;47.822;9.402;2022-10-14T02:52:59;10.60;99.90
15959;DHT22;8078;47.822;9.402;2022-10-14T02:55:25;10.60;99.90
15959;DHT22;8078;47.822;9.402;2022-10-14T02:57:52;10.60;99.90
15959;DHT22;8078;47.822;9.402;2022-10-14T03:00:17;10.60;99.90
15959;DHT22;8078;47.822;9.402;2022-10-14T03:02:43;10.60;99.90
15959;DHT22;8078;47.822;9.402;2022-10-14T03:05:09;10.50;99.90
15959;DHT22;8078;47.822;9.402;2022-10-14T03:07:35;10.50;99.90
15959;DHT22;8078;47.822;9.402;2022-10-14T03:10:00;10.50;99.90
15959;DHT22;8078;47.822;9.402;2022-10-14T03:12:27;10.50;99.90
15959;DHT22;8078;47.822;9.402;2022-10-14T03:14:52;10.50;99.90
15959;DHT22;8078;47.822;9.402;2022-10-14T03:17:18;10.50;99.90
15959;DHT22;8078;47.822;9.402;2022-10-14T03:19:43;10.50;99.90
15959;DHT22;8078;47.822;9.402;2022-10-14T03:22:09;10.60;99.90
15959;DHT22;8078;47.822;9.402;2022-10-14T03:24:34;10.60;99.90
15959;DHT22;8078;47.822;9.402;2022-10-14T03:27:00;10.60;99.90
15959;DHT22;8078;47.822;9.402;2022-10-14T03:29:25;10.60;99.90
15959;DHT22;8078;47.822;9.402;2022-10-14T03:31:51;10.60;99.90
15959;DHT22;8078;47.822;9.402;2022-10-14T03:34:17;10.60;99.90
15959;DHT22;8078;47.822;9.402;2022-10-14T03:36:42;10.70;99.90
15959;DHT22;8078;47.822;9.402;2022-10-14T03:39:11;10.70;99.90
15959;DHT22;8078;47.822;9.402;2022-10-14T03:41:36;10.70;99.90
15959;DHT22;8078;47.822;9.402;2022-10-14T03:44:02;10.70;99.90
15959;DHT22;8078;47.822;9.402;2022-10-14T03:46:28;10.70;99.90
15959;DHT22;8078;47.822;9.402;2022-10-14T03:48:53;10.70;99.90
15959;DHT22;8078;47.822;9.402;2022-10-14T03:51:19;10.70;99.90
15959;DHT22;8078;47.822;9.402;2022-10-14T03:53:45;10.70;99.90
15959;DHT22;8078;47.822;9.402;2022-10-14T03:56:10;10.70;99.90
15959;DHT22;8078;47.822;9.402;2022-10-14T03:58:36;10.70;99.90
15959;DHT22;8078;47.822;9.402;2022-10-14T04:01:02;10.70;99.90
15959;DHT22;8078;47.822;9.402;2022-10-14T04:03:27;10.70;99.90
15959;DHT22;8078;47.822;9.402;2022-10-14T04:05:53;10.70;99.90
15959;DHT22;8078;47.822;9.402;2022-10-14T04:08:18;10.70;99.90
15959;DHT22;8078;47.822;9.402;2022-10-14T04:10:44;10.70;99.90
15959;DHT22;8078;47.822;9.402;2022-10-14T04:13:09;10.70;99.90
15959;DHT22;8078;47.822;9.402;2022-10-14T04:15:35;10.70;99.90
15959;DHT22;8078;47.822;9.402;2022-10-14T04:18:01;10.70;99.90
15959;DHT22;8078;47.822;9.402;2022-10-14T04:20:27;10.60;99.90
15959;DHT22;8078;47.822;9.402;2022-10-14T04:22:52;10.70;99.90
15959;DHT22;8078;47.822;9.402;2022-10-14T04:25:18;10.70;99.90
15959;DHT22;8078;47.822;9.402;2022-10-14T04:27:44;10.70;99.90
15959;DHT22;8078;47.822;9.402;2022-10-14T04:30:11;10.70;99.90
15959;DHT22;8078;47.822;9.402;2022-10-14T04:32:36;10.70;99.90
15959;DHT22;8078;47.822;9.402;2022-10-14T04:35:02;10.70;99.90
15959;DHT22;8078;47.822;9.402;2022-10-14T04:37:30;10.60;99.90
15959;DHT22;8078;47.822;9.402;2022-10-14T04:39:55;10.60;99.90
15959;DHT22;8078;47.822;9.402;2022-10-14T04:42:21;10.60;99.90
15959;DHT22;8078;47.822;9.402;2022-10-14T04:44:46;10.60;99.90
15959;DHT22;8078;47.822;9.402;2022-10-14T04:47:12;10.50;99.90
15959;DHT22;8078;47.822;9.402;2022-10-14T04:49:37;10.50;99.90
15959;DHT22;8078;47.822;9.402;2022-10-14T04:52:03;10.50;99.90
15959;DHT22;8078;47.822;9.402;2022-10-14T04:54:28;10.40;99.90
15959;DHT22;8078;47.822;9.402;2022-10-14T04:56:55;10.40;99.90
15959;DHT22;8078;47.822;9.402;2022-10-14T04:59:20;10.40;99.90
15959;DHT22;8078;47.822;9.402;2022-10-14T05:01:46;10.40;99.90
15959;DHT22;8078;47.822;9.402;2022-10-14T05:04:11;10.40;99.90
15959;DHT22;8078;47.822;9.402;2022-10-14T05:06:37;10.40;99.90
15959;DHT22;8078;47.822;9.402;2022-10-14T05:09:04;10.40;99.90
15959;DHT22;8078;47.822;9.402;2022-10-14T05:11:30;10.40;99.90
15959;DHT22;8078;47.822;9.402;2022-10-14T05:13:56;10.40;99.90
15959;DHT22;8078;47.822;9.402;2022-10-14T05:16:21;10.40;99.90
15959;DHT22;8078;47.822;9.402;2022-10-14T05:18:47;10.40;99.90
15959;DHT22;8078;47.822;9.402;2022-10-14T05:21:12;10.40;99.90
15959;DHT22;8078;47.822;9.402;2022-10-14T05:23:38;10.40;99.90
15959;DHT22;8078;47.822;9.402;2022-10-14T05:26:04;10.40;99.90
15959;DHT22;8078;47.822;9.402;2022-10-14T05:28:29;10.40;99.90
15959;DHT22;8078;47.822;9.402;2022-10-14T05:30:55;10.40;99.90
15959;DHT22;8078;47.822;9.402;2022-10-14T05:33:21;10.40;99.90
15959;DHT22;8078;47.822;9.402;2022-10-14T05:35:46;10.40;99.90
15959;DHT22;8078;47.822;9.402;2022-10-14T05:38:12;10.50;99.90
15959;DHT22;8078;47.822;9.402;2022-10-14T05:40:38;10.50;99.90
15959;DHT22;8078;47.822;9.402;2022-10-14T05:43:04;10.50;99.90
15959;DHT22;8078;47.822;9.402;2022-10-14T05:45:30;10.50;99.90
15959;DHT22;8078;47.822;9.402;2022-10-14T05:47:56;10.50;99.90
15959;DHT22;8078;47.822;9.402;2022-10-14T05:50:21;10.50;99.90
15959;DHT22;8078;47.822;9.402;2022-10-14T05:52:47;10.50;99.90
15959;DHT22;8078;47.822;9.402;2022-10-14T05:55:13;10.60;99.90
15959;DHT22;8078;47.822;9.402;2022-10-14T05:57:38;10.60;99.90
15959;DHT22;8078;47.822;9.402;2022-10-14T06:00:06;10.70;99.90
15959;DHT22;8078;47.822;9.402;2022-10-14T06:02:32;10.70;99.90
15959;DHT22;8078;47.822;9.402;2022-10-14T06:04:57;10.70;99.90
15959;DHT22;8078;47.822;9.402;2022-10-14T06:07:23;10.70;99.90
15959;DHT22;8078;47.822;9.402;2022-10-14T06:09:48;10.70;99.90
15959;DHT22;8078;47.822;9.402;2022-10-14T06:12:14;10.70;99.90
15959;DHT22;8078;47.822;9.402;2022-10-14T06:14:39;10.70;99.90
15959;DHT22;8078;47.822;9.402;2022-10-14T06:17:06;10.80;99.90
15959;DHT22;8078;47.822;9.402;2022-10-14T06:19:31;10.80;99.90
15959;DHT22;8078;47.822;9.402;2022-10-14T06:21:58;10.80;99.90
15959;DHT22;8078;47.822;9.402;2022-10-14T06:24:24;10.80;99.90
15959;DHT22;8078;47.822;9.402;2022-10-14T06:26:49;10.80;99.90
15959;DHT22;8078;47.822;9.402;2022-10-14T06:29:15;10.80;99.90
15959;DHT22;8078;47.822;9.402;2022-10-14T06:31:41;10.90;99.90
15959;DHT22;8078;47.822;9.402;2022-10-14T06:34:07;10.90;99.90
15959;DHT22;8078;47.822;9.402;2022-10-14T06:36:33;11.00;99.90
15959;DHT22;8078;47.822;9.402;2022-10-14T06:38:59;11.10;99.90
15959;DHT22;8078;47.822;9.402;2022-10-14T06:41:25;11.10;99.90
15959;DHT22;8078;47.822;9.402;2022-10-14T06:43:51;11.10;99.90
15959;DHT22;8078;47.822;9.402;2022-10-14T06:46:17;11.20;99.90
15959;DHT22;8078;47.822;9.402;2022-10-14T06:48:42;11.20;99.90
15959;DHT22;8078;47.822;9.402;2022-10-14T06:51:08;11.30;99.90
15959;DHT22;8078;47.822;9.402;2022-10-14T06:53:34;11.40;99.90
15959;DHT22;8078;47.822;9.402;2022-10-14T06:56:02;11.40;99.90
15959;DHT22;8078;47.822;9.402;2022-10-14T06:58:28;11.50;99.90
15959;DHT22;8078;47.822;9.402;2022-10-14T07:00:54;11.50;99.90
15959;DHT22;8078;47.822;9.402;2022-10-14T07:03:20;11.60;99.90
15959;DHT22;8078;47.822;9.402;2022-10-14T07:05:46;11.60;99.90
15959;DHT22;8078;47.822;9.402;2022-10-14T07:08:12;11.70;99.90
15959;DHT22;8078;47.822;9.402;2022-10-14T07:10:37;11.60;99.90
15959;DHT22;8078;47.822;9.402;2022-10-14T07:13:03;11.50;99.90
15959;DHT22;8078;47.822;9.402;2022-10-14T07:15:28;11.50;99.90
15959;DHT22;8078;47.822;9.402;2022-10-14T07:17:54;11.60;99.90
15959;DHT22;8078;47.822;9.402;2022-10-14T07:20:19;11.70;99.90
15959;DHT22;8078;47.822;9.402;2022-10-14T07:22:45;11.80;99.90
15959;DHT22;8078;47.822;9.402;2022-10-14T07:25:11;12.00;99.90
15959;DHT22;8078;47.822;9.402;2022-10-14T07:27:36;12.00;99.90
15959;DHT22;8078;47.822;9.402;2022-10-14T07:30:04;12.00;99.90
15959;DHT22;8078;47.822;9.402;2022-10-14T07:32:29;11.90;99.90
15959;DHT22;8078;47.822;9.402;2022-10-14T07:34:55;11.90;99.90
15959;DHT22;8078;47.822;9.402;2022-10-14T07:37:21;12.00;99.90
15959;DHT22;8078;47.822;9.402;2022-10-14T07:39:46;12.00;99.90
15959;DHT22;8078;47.822;9.402;2022-10-14T07:42:12;12.00;99.90
15959;DHT22;8078;47.822;9.402;2022-10-14T07:44:37;12.00;99.90
15959;DHT22;8078;47.822;9.402;2022-10-14T07:47:04;12.00;99.90
15959;DHT22;8078;47.822;9.402;2022-10-14T07:49:30;12.10;99.90
15959;DHT22;8078;47.822;9.402;2022-10-14T07:51:56;12.00;99.90
15959;DHT22;8078;47.822;9.402;2022-10-14T07:54:26;11.90;99.90
15959;DHT22;8078;47.822;9.402;2022-10-14T07:56:56;12.00;99.90
15959;DHT22;8078;47.822;9.402;2022-10-14T07:59:23;12.00;99.90
15959;DHT22;8078;47.822;9.402;2022-10-14T08:01:50;12.00;99.90
15959;DHT22;8078;47.822;9.402;2022-10-14T08:04:17;12.20;99.90
15959;DHT22;8078;47.822;9.402;2022-10-14T08:06:42;12.30;99.90
15959;DHT22;8078;47.822;9.402;2022-10-14T08:09:10;12.40;99.90
15959;DHT22;8078;47.822;9.402;2022-10-14T08:11:35;12.50;99.90
15959;DHT22;8078;47.822;9.402;2022-10-14T08:14:02;12.60;99.90
15959;DHT22;8078;47.822;9.402;2022-10-14T08:16:31;12.60;99.90
15959;DHT22;8078;47.822;9.402;2022-10-14T08:18:59;12.60;99.90
15959;DHT22;8078;47.822;9.402;2022-10-14T08:21:26;12.60;99.90
15959;DHT22;8078;47.822;9.402;2022-10-14T08:23:54;12.60;99.90
15959;DHT22;8078;47.822;9.402;2022-10-14T08:26:28;12.70;99.90
15959;DHT22;8078;47.822;9.402;2022-10-14T08:29:00;12.60;99.90
15959;DHT22;8078;47.822;9.402;2022-10-14T08:31:26;12.70;99.90
15959;DHT22;8078;47.822;9.402;2022-10-14T08:33:54;12.80;99.90
15959;DHT22;8078;47.822;9.402;2022-10-14T08:36:20;12.60;99.90
15959;DHT22;8078;47.822;9.402;2022-10-14T08:38:46;12.70;99.90
15959;DHT22;8078;47.822;9.402;2022-10-14T08:44:09;12.50;99.90
15959;DHT22;8078;47.822;9.402;2022-10-14T08:46:49;12.70;99.90
15959;DHT22;8078;47.822;9.402;2022-10-14T08:52:21;12.80;99.90
15959;DHT22;8078;47.822;9.402;2022-10-14T08:57:50;13.00;99.90
15959;DHT22;8078;47.822;9.402;2022-10-14T09:00:20;12.90;99.90
15959;DHT22;8078;47.822;9.402;2022-10-14T09:02:49;13.00;99.90
15959;DHT22;8078;47.822;9.402;2022-10-14T09:05:19;13.10;99.90
15959;DHT22;8078;47.822;9.402;2022-10-14T09:07:47;13.10;99.90
15959;DHT22;8078;47.822;9.402;2022-10-14T09:12:54;13.10;99.90
15959;DHT22;8078;47.822;9.402;2022-10-14T09:15:33;12.90;99.90
15959;DHT22;8078;47.822;9.402;2022-10-14T09:18:15;12.80;99.90
15959;DHT22;8078;47.822;9.402;2022-10-14T09:20:43;12.90;99.90
15959;DHT22;8078;47.822;9.402;2022-10-14T09:23:20;12.90;99.90
15959;DHT22;8078;47.822;9.402;2022-10-14T09:26:06;13.00;99.90
15959;DHT22;8078;47.822;9.402;2022-10-14T09:28:39;12.70;99.90
15959;DHT22;8078;47.822;9.402;2022-10-14T09:31:07;12.80;99.90
15959;DHT22;8078;47.822;9.402;2022-10-14T09:33:35;12.80;99.90
15959;DHT22;8078;47.822;9.402;2022-10-14T09:36:05;12.70;99.90
15959;DHT22;8078;47.822;9.402;2022-10-14T09:38:31;12.60;99.90
15959;DHT22;8078;47.822;9.402;2022-10-14T09:41:00;12.50;99.90
15959;DHT22;8078;47.822;9.402;2022-10-14T09:43:26;12.30;99.90
15959;DHT22;8078;47.822;9.402;2022-10-14T09:48:49;12.00;99.90
15959;DHT22;8078;47.822;9.402;2022-10-14T09:51:22;12.00;99.90
15959;DHT22;8078;47.822;9.402;2022-10-14T09:53:54;12.00;99.90
15959;DHT22;8078;47.822;9.402;2022-10-14T09:56:28;12.00;99.90
15959;DHT22;8078;47.822;9.402;2022-10-14T09:58:54;12.00;99.90
15959;DHT22;8078;47.822;9.402;2022-10-14T10:01:39;11.90;99.90
15959;DHT22;8078;47.822;9.402;2022-10-14T10:04:29;11.70;99.90
15959;DHT22;8078;47.822;9.402;2022-10-14T10:07:01;11.50;99.90
15959;DHT22;8078;47.822;9.402;2022-10-14T10:09:29;11.50;99.90
15959;DHT22;8078;47.822;9.402;2022-10-14T10:11:55;11.40;99.90
15959;DHT22;8078;47.822;9.402;2022-10-14T10:14:24;11.30;99.90
15959;DHT22;8078;47.822;9.402;2022-10-14T10:17:12;11.30;99.90
15959;DHT22;8078;47.822;9.402;2022-10-14T10:19:47;11.30;99.90
15959;DHT22;8078;47.822;9.402;2022-10-14T10:24:51;11.30;99.90
15959;DHT22;8078;47.822;9.402;2022-10-14T10:27:44;11.30;99.90
15959;DHT22;8078;47.822;9.402;2022-10-14T10:32:51;11.20;99.90
15959;DHT22;8078;47.822;9.402;2022-10-14T10:35:31;11.20;99.90
15959;DHT22;8078;47.822;9.402;2022-10-14T10:46:20;11.10;99.90
15959;DHT22;8078;47.822;9.402;2022-10-14T10:48:57;11.00;99.90
15959;DHT22;8078;47.822;9.402;2022-10-14T10:51:51;11.10;99.90
15959;DHT22;8078;47.822;9.402;2022-10-14T10:54:36;11.00;99.90
15959;DHT22;8078;47.822;9.402;2022-10-14T10:57:08;11.00;99.90
15959;DHT22;8078;47.822;9.402;2022-10-14T10:59:53;11.00;99.90
15959;DHT22;8078;47.822;9.402;2022-10-14T11:02:54;11.10;99.90
15959;DHT22;8078;47.822;9.402;2022-10-14T11:05:36;11.10;99.90
15959;DHT22;8078;47.822;9.402;2022-10-14T11:11:31;11.10;99.90
15959;DHT22;8078;47.822;9.402;2022-10-14T11:16:59;11.30;99.90
15959;DHT22;8078;47.822;9.402;2022-10-14T11:19:34;11.30;99.90
15959;DHT22;8078;47.822;9.402;2022-10-14T11:27:35;11.50;99.90
15959;DHT22;8078;47.822;9.402;2022-10-14T11:32:53;11.50;99.90
15959;DHT22;8078;47.822;9.402;2022-10-14T11:35:33;11.50;99.90
15959;DHT22;8078;47.822;9.402;2022-10-14T11:38:25;11.50;99.90
15959;DHT22;8078;47.822;9.402;2022-10-14T11:41:06;11.50;99.90
15959;DHT22;8078;47.822;9.402;2022-10-14T11:44:07;11.60;99.90
15959;DHT22;8078;47.822;9.402;2022-10-14T11:46:39;11.60;99.90
15959;DHT22;8078;47.822;9.402;2022-10-14T11:49:13;11.70;99.90
15959;DHT22;8078;47.822;9.402;2022-10-14T11:52:00;11.90;99.90
15959;DHT22;8078;47.822;9.402;2022-10-14T11:54:46;11.80;99.90
15959;DHT22;8078;47.822;9.402;2022-10-14T12:00:06;11.90;99.90
15959;DHT22;8078;47.822;9.402;2022-10-14T12:02:54;11.90;99.90
15959;DHT22;8078;47.822;9.402;2022-10-14T12:05:31;11.80;99.90
15959;DHT22;8078;47.822;9.402;2022-10-14T12:08:14;11.80;99.90
15959;DHT22;8078;47.822;9.402;2022-10-14T12:11:08;11.70;99.90
15959;DHT22;8078;47.822;9.402;2022-10-14T12:13:41;11.70;99.90
15959;DHT22;8078;47.822;9.402;2022-10-14T12:16:13;11.80;99.90
15959;DHT22;8078;47.822;9.402;2022-10-14T12:18:41;11.80;99.90
15959;DHT22;8078;47.822;9.402;2022-10-14T12:21:18;11.70;99.90
15959;DHT22;8078;47.822;9.402;2022-10-14T12:24:11;11.70;99.90
15959;DHT22;8078;47.822;9.402;2022-10-14T12:29:16;11.70;99.90
15959;DHT22;8078;47.822;9.402;2022-10-14T12:32:34;11.60;99.90
15959;DHT22;8078;47.822;9.402;2022-10-14T12:34:57;11.70;99.90
15959;DHT22;8078;47.822;9.402;2022-10-14T12:42:26;11.70;99.90
15959;DHT22;8078;47.822;9.402;2022-10-14T12:44:56;11.70;99.90
15959;DHT22;8078;47.822;9.402;2022-10-14T12:47:28;11.70;99.90
15959;DHT22;8078;47.822;9.402;2022-10-14T12:52:46;11.80;99.90
15959;DHT22;8078;47.822;9.402;2022-10-14T12:55:21;11.80;99.90
15959;DHT22;8078;47.822;9.402;2022-10-14T12:57:58;11.80;99.90
15959;DHT22;8078;47.822;9.402;2022-10-14T13:02:53;11.90;99.90
15959;DHT22;8078;47.822;9.402;2022-10-14T13:05:37;11.80;99.90
15959;DHT22;8078;47.822;9.402;2022-10-14T13:08:26;11.90;99.90
15959;DHT22;8078;47.822;9.402;2022-10-14T13:16:10;11.80;99.90
15959;DHT22;8078;47.822;9.402;2022-10-14T13:23:52;11.80;99.90
15959;DHT22;8078;47.822;9.402;2022-10-14T13:32:11;11.90;99.90
15959;DHT22;8078;47.822;9.402;2022-10-14T13:37:30;11.80;99.90
15959;DHT22;8078;47.822;9.402;2022-10-14T13:39:57;11.80;99.90
15959;DHT22;8078;47.822;9.402;2022-10-14T13:42:34;11.80;99.90
15959;DHT22;8078;47.822;9.402;2022-10-14T13:45:08;11.90;99.90
15959;DHT22;8078;47.822;9.402;2022-10-14T13:47:36;11.90;99.90
15959;DHT22;8078;47.822;9.402;2022-10-14T13:50:05;11.90;99.90
15959;DHT22;8078;47.822;9.402;2022-10-14T13:52:32;11.90;99.90
15959;DHT22;8078;47.822;9.402;2022-10-14T13:55:19;11.90;99.90
15959;DHT22;8078;47.822;9.402;2022-10-14T13:58:00;11.90;99.90
15959;DHT22;8078;47.822;9.402;2022-10-14T14:02:53;11.90;99.90
15959;DHT22;8078;47.822;9.402;2022-10-14T14:05:19;11.90;99.90
15959;DHT22;8078;47.822;9.402;2022-10-14T14:07:45;11.90;99.90
15959;DHT22;8078;47.822;9.402;2022-10-14T14:10:17;11.90;99.90
15959;DHT22;8078;47.822;9.402;2022-10-14T14:12:44;11.90;99.90
15959;DHT22;8078;47.822;9.402;2022-10-14T14:15:23;11.90;99.90
15959;DHT22;8078;47.822;9.402;2022-10-14T14:17:49;11.90;99.90
15959;DHT22;8078;47.822;9.402;2022-10-14T14:20:21;11.90;99.90
15959;DHT22;8078;47.822;9.402;2022-10-14T14:22:48;11.90;99.90
15959;DHT22;8078;47.822;9.402;2022-10-14T14:27:45;11.90;99.90
15959;DHT22;8078;47.822;9.402;2022-10-14T14:30:21;11.80;99.90
15959;DHT22;8078;47.822;9.402;2022-10-14T14:32:49;11.80;99.90
15959;DHT22;8078;47.822;9.402;2022-10-14T14:35:17;11.70;99.90
15959;DHT22;8078;47.822;9.402;2022-10-14T14:37:44;11.70;99.90
15959;DHT22;8078;47.822;9.402;2022-10-14T14:40:16;11.70;99.90
15959;DHT22;8078;47.822;9.402;2022-10-14T14:42:42;11.80;99.90
15959;DHT22;8078;47.822;9.402;2022-10-14T14:45:17;11.80;99.90
15959;DHT22;8078;47.822;9.402;2022-10-14T14:47:46;11.80;99.90
15959;DHT22;8078;47.822;9.402;2022-10-14T14:50:15;11.80;99.90
15959;DHT22;8078;47.822;9.402;2022-10-14T14:52:43;11.80;99.90
15959;DHT22;8078;47.822;9.402;2022-10-14T14:58:45;11.80;99.90
15959;DHT22;8078;47.822;9.402;2022-10-14T15:01:31;11.80;99.90
15959;DHT22;8078;47.822;9.402;2022-10-14T15:03:58;11.80;99.90
15959;DHT22;8078;47.822;9.402;2022-10-14T15:06:25;11.80;99.90
15959;DHT22;8078;47.822;9.402;2022-10-14T15:08:52;11.80;99.90
15959;DHT22;8078;47.822;9.402;2022-10-14T15:11:19;11.80;99.90
15959;DHT22;8078;47.822;9.402;2022-10-14T15:13:55;11.80;99.90
15959;DHT22;8078;47.822;9.402;2022-10-14T15:16:39;11.80;99.90
15959;DHT22;8078;47.822;9.402;2022-10-14T15:21:38;11.80;99.90
15959;DHT22;8078;47.822;9.402;2022-10-14T15:24:13;11.80;99.90
15959;DHT22;8078;47.822;9.402;2022-10-14T15:26:40;11.80;99.90
15959;DHT22;8078;47.822;9.402;2022-10-14T15:29:19;11.90;99.90
15959;DHT22;8078;47.822;9.402;2022-10-14T15:32:12;12.00;99.90
15959;DHT22;8078;47.822;9.402;2022-10-14T15:34:38;12.00;99.90
15959;DHT22;8078;47.822;9.402;2022-10-14T15:37:04;11.90;99.90
15959;DHT22;8078;47.822;9.402;2022-10-14T15:39:30;11.90;99.90
15959;DHT22;8078;47.822;9.402;2022-10-14T15:41:56;11.90;99.90
15959;DHT22;8078;47.822;9.402;2022-10-14T15:44:21;12.00;99.90
15959;DHT22;8078;47.822;9.402;2022-10-14T15:46:47;12.00;99.90
15959;DHT22;8078;47.822;9.402;2022-10-14T15:49:35;11.90;99.90
15959;DHT22;8078;47.822;9.402;2022-10-14T15:52:02;11.90;99.90
15959;DHT22;8078;47.822;9.402;2022-10-14T15:54:27;11.90;99.90
15959;DHT22;8078;47.822;9.402;2022-10-14T15:56:54;11.90;99.90
15959;DHT22;8078;47.822;9.402;2022-10-14T15:59:21;11.90;99.90
15959;DHT22;8078;47.822;9.402;2022-10-14T16:01:47;11.90;99.90
15959;DHT22;8078;47.822;9.402;2022-10-14T16:04:24;11.90;99.90
15959;DHT22;8078;47.822;9.402;2022-10-14T16:06:53;11.80;99.90
15959;DHT22;8078;47.822;9.402;2022-10-14T16:09:22;11.80;99.90
15959;DHT22;8078;47.822;9.402;2022-10-14T16:11:48;11.80;99.90
15959;DHT22;8078;47.822;9.402;2022-10-14T16:14:22;11.80;99.90
15959;DHT22;8078;47.822;9.402;2022-10-14T16:16:48;11.80;99.90
15959;DHT22;8078;47.822;9.402;2022-10-14T16:19:13;11.80;99.90
15959;DHT22;8078;47.822;9.402;2022-10-14T16:21:39;11.80;99.90
15959;DHT22;8078;47.822;9.402;2022-10-14T16:24:06;11.80;99.90
15959;DHT22;8078;47.822;9.402;2022-10-14T16:26:31;11.80;99.90
15959;DHT22;8078;47.822;9.402;2022-10-14T16:28:57;11.90;99.90
15959;DHT22;8078;47.822;9.402;2022-10-14T16:31:24;11.90;99.90
15959;DHT22;8078;47.822;9.402;2022-10-14T16:33:51;11.90;99.90
15959;DHT22;8078;47.822;9.402;2022-10-14T16:36:19;11.90;99.90
15959;DHT22;8078;47.822;9.402;2022-10-14T16:38:45;11.90;99.90
15959;DHT22;8078;47.822;9.402;2022-10-14T16:41:11;11.90;99.90
15959;DHT22;8078;47.822;9.402;2022-10-14T16:43:36;11.90;99.90
15959;DHT22;8078;47.822;9.402;2022-10-14T16:46:03;11.90;99.90
15959;DHT22;8078;47.822;9.402;2022-10-14T16:48:31;11.90;99.90
15959;DHT22;8078;47.822;9.402;2022-10-14T16:50:56;11.90;99.90
15959;DHT22;8078;47.822;9.402;2022-10-14T16:53:22;11.90;99.90
15959;DHT22;8078;47.822;9.402;2022-10-14T16:56:14;11.90;99.90
15959;DHT22;8078;47.822;9.402;2022-10-14T16:59:00;11.90;99.90
15959;DHT22;8078;47.822;9.402;2022-10-14T17:01:26;11.80;99.90
15959;DHT22;8078;47.822;9.402;2022-10-14T17:03:53;11.90;99.90
15959;DHT22;8078;47.822;9.402;2022-10-14T17:06:19;11.90;99.90
15959;DHT22;8078;47.822;9.402;2022-10-14T17:08:45;11.90;99.90
15959;DHT22;8078;47.822;9.402;2022-10-14T17:11:10;11.90;99.90
15959;DHT22;8078;47.822;9.402;2022-10-14T17:13:36;11.90;99.90
15959;DHT22;8078;47.822;9.402;2022-10-14T17:16:04;11.90;99.90
15959;DHT22;8078;47.822;9.402;2022-10-14T17:18:31;11.90;99.90
15959;DHT22;8078;47.822;9.402;2022-10-14T17:21:08;11.90;99.90
15959;DHT22;8078;47.822;9.402;2022-10-14T17:23:39;11.90;99.90
15959;DHT22;8078;47.822;9.402;2022-10-14T17:26:10;11.90;99.90
15959;DHT22;8078;47.822;9.402;2022-10-14T17:28:39;11.90;99.90
15959;DHT22;8078;47.822;9.402;2022-10-14T17:31:07;11.90;99.90
15959;DHT22;8078;47.822;9.402;2022-10-14T17:33:34;11.90;99.90
15959;DHT22;8078;47.822;9.402;2022-10-14T17:36:00;11.80;99.90
15959;DHT22;8078;47.822;9.402;2022-10-14T17:38:27;11.80;99.90
15959;DHT22;8078;47.822;9.402;2022-10-14T17:41:10;11.70;99.90
15959;DHT22;8078;47.822;9.402;2022-10-14T17:43:36;11.70;99.90
15959;DHT22;8078;47.822;9.402;2022-10-14T17:46:07;11.70;99.90
15959;DHT22;8078;47.822;9.402;2022-10-14T17:48:34;11.60;99.90